sensor_id;sensor_type;location;lat;lon;timestamp;P1;durP1;ratioP1;P2;durP2;ratioP2
57335;SDS011;43171;50.994;18.204;2023-05-10T00:00:20;7.40;;;4.80;;
57335;SDS011;43171;50.994;18.204;2023-05-10T00:10:04;7.60;;;4.40;;
57335;SDS011;43171;50.994;18.204;2023-05-10T00:19:48;7.40;;;5.00;;
57335;SDS011;43171;50.994;18.204;2023-05-10T00:22:14;9.80;;;5.60;;
57335;SDS011;43171;50.994;18.204;2023-05-10T00:31:57;4.20;;;2.80;;
57335;SDS011;43171;50.994;18.204;2023-05-10T00:34:22;8.70;;;5.90;;
57335;SDS011;43171;50.994;18.204;2023-05-10T00:44:05;9.00;;;4.70;;
57335;SDS011;43171;50.994;18.204;2023-05-10T00:53:48;4.60;;;4.10;;
57335;SDS011;43171;50.994;18.204;2023-05-10T01:03:32;8.20;;;4.10;;
57335;SDS011;43171;50.994;18.204;2023-05-10T01:13:18;13.60;;;3.60;;
57335;SDS011;43171;50.994;18.204;2023-05-10T01:33:35;8.70;;;3.70;;
57335;SDS011;43171;50.994;18.204;2023-05-10T01:43:53;6.00;;;4.20;;
57335;SDS011;43171;50.994;18.204;2023-05-10T01:46:41;8.80;;;5.70;;
57335;SDS011;43171;50.994;18.204;2023-05-10T01:56:47;7.00;;;5.00;;
57335;SDS011;43171;50.994;18.204;2023-05-10T02:06:32;6.50;;;4.00;;
57335;SDS011;43171;50.994;18.204;2023-05-10T02:16:16;3.90;;;3.20;;
57335;SDS011;43171;50.994;18.204;2023-05-10T02:26:00;2.70;;;1.60;;
57335;SDS011;43171;50.994;18.204;2023-05-10T02:35:44;5.20;;;3.90;;
57335;SDS011;43171;50.994;18.204;2023-05-10T02:45:29;9.20;;;5.80;;
57335;SDS011;43171;50.994;18.204;2023-05-10T02:55:14;4.80;;;3.80;;
57335;SDS011;43171;50.994;18.204;2023-05-10T03:05:14;5.80;;;3.70;;
57335;SDS011;43171;50.994;18.204;2023-05-10T03:25:28;2.30;;;2.00;;
57335;SDS011;43171;50.994;18.204;2023-05-10T03:35:12;12.00;;;3.40;;
57335;SDS011;43171;50.994;18.204;2023-05-10T03:44:57;4.20;;;3.30;;
57335;SDS011;43171;50.994;18.204;2023-05-10T03:54:40;11.60;;;5.10;;
57335;SDS011;43171;50.994;18.204;2023-05-10T04:04:22;3.40;;;2.80;;
57335;SDS011;43171;50.994;18.204;2023-05-10T04:14:04;6.70;;;4.10;;
57335;SDS011;43171;50.994;18.204;2023-05-10T04:23:47;14.10;;;4.50;;
57335;SDS011;43171;50.994;18.204;2023-05-10T04:33:30;7.30;;;4.10;;
57335;SDS011;43171;50.994;18.204;2023-05-10T04:43:12;3.80;;;3.10;;
57335;SDS011;43171;50.994;18.204;2023-05-10T04:50:30;8.80;;;5.90;;
57335;SDS011;43171;50.994;18.204;2023-05-10T05:00:12;7.90;;;4.10;;
57335;SDS011;43171;50.994;18.204;2023-05-10T05:17:12;3.30;;;3.00;;
57335;SDS011;43171;50.994;18.204;2023-05-10T05:26:54;8.30;;;3.70;;
57335;SDS011;43171;50.994;18.204;2023-05-10T05:36:37;5.50;;;3.20;;
57335;SDS011;43171;50.994;18.204;2023-05-10T05:46:20;3.30;;;2.70;;
57335;SDS011;43171;50.994;18.204;2023-05-10T05:48:45;5.80;;;3.70;;
57335;SDS011;43171;50.994;18.204;2023-05-10T05:58:28;2.40;;;2.20;;
57335;SDS011;43171;50.994;18.204;2023-05-10T06:08:10;4.80;;;2.90;;
57335;SDS011;43171;50.994;18.204;2023-05-10T06:17:53;4.70;;;2.80;;
57335;SDS011;43171;50.994;18.204;2023-05-10T06:27:36;4.00;;;3.20;;
57335;SDS011;43171;50.994;18.204;2023-05-10T06:37:20;3.60;;;3.30;;
57335;SDS011;43171;50.994;18.204;2023-05-10T06:47:03;3.00;;;2.70;;
57335;SDS011;43171;50.994;18.204;2023-05-10T06:56:46;5.00;;;2.00;;
57335;SDS011;43171;50.994;18.204;2023-05-10T07:06:30;2.20;;;1.80;;
57335;SDS011;43171;50.994;18.204;2023-05-10T07:16:13;3.60;;;2.70;;
57335;SDS011;43171;50.994;18.204;2023-05-10T07:25:55;4.90;;;3.50;;
57335;SDS011;43171;50.994;18.204;2023-05-10T07:35:39;8.70;;;2.10;;
57335;SDS011;43171;50.994;18.204;2023-05-10T07:45:22;12.70;;;2.70;;
57335;SDS011;43171;50.994;18.204;2023-05-10T07:55:05;2.70;;;2.50;;
57335;SDS011;43171;50.994;18.204;2023-05-10T08:04:50;2.60;;;1.70;;
57335;SDS011;43171;50.994;18.204;2023-05-10T08:14:34;3.10;;;2.00;;
57335;SDS011;43171;50.994;18.204;2023-05-10T08:24:20;2.40;;;2.20;;
57335;SDS011;43171;50.994;18.204;2023-05-10T08:34:04;2.70;;;2.10;;
57335;SDS011;43171;50.994;18.204;2023-05-10T08:38:55;3.30;;;2.10;;
57335;SDS011;43171;50.994;18.204;2023-05-10T08:48:43;1.60;;;1.50;;
57335;SDS011;43171;50.994;18.204;2023-05-10T08:58:32;4.00;;;1.90;;
57335;SDS011;43171;50.994;18.204;2023-05-10T09:08:14;3.60;;;2.10;;
57335;SDS011;43171;50.994;18.204;2023-05-10T09:18:00;2.30;;;1.70;;
57335;SDS011;43171;50.994;18.204;2023-05-10T09:27:45;1.90;;;1.80;;
57335;SDS011;43171;50.994;18.204;2023-05-10T09:37:44;1.90;;;1.70;;
57335;SDS011;43171;50.994;18.204;2023-05-10T09:47:35;1.90;;;1.70;;
57335;SDS011;43171;50.994;18.204;2023-05-10T09:57:22;1.80;;;1.70;;
57335;SDS011;43171;50.994;18.204;2023-05-10T10:07:07;3.00;;;2.20;;
57335;SDS011;43171;50.994;18.204;2023-05-10T10:16:50;1.40;;;1.10;;
57335;SDS011;43171;50.994;18.204;2023-05-10T10:26:34;4.20;;;2.20;;
57335;SDS011;43171;50.994;18.204;2023-05-10T10:36:43;2.60;;;2.40;;
57335;SDS011;43171;50.994;18.204;2023-05-10T11:07:55;2.10;;;1.90;;
57335;SDS011;43171;50.994;18.204;2023-05-10T11:17:43;1.90;;;1.80;;
57335;SDS011;43171;50.994;18.204;2023-05-10T11:27:45;3.50;;;1.90;;
57335;SDS011;43171;50.994;18.204;2023-05-10T11:37:32;2.30;;;2.10;;
57335;SDS011;43171;50.994;18.204;2023-05-10T11:47:15;6.30;;;2.00;;
57335;SDS011;43171;50.994;18.204;2023-05-10T11:57:10;3.40;;;2.10;;
57335;SDS011;43171;50.994;18.204;2023-05-10T12:06:54;2.10;;;1.80;;
57335;SDS011;43171;50.994;18.204;2023-05-10T12:16:37;2.80;;;1.60;;
57335;SDS011;43171;50.994;18.204;2023-05-10T12:26:27;0.80;;;0.80;;
57335;SDS011;43171;50.994;18.204;2023-05-10T12:36:15;5.70;;;2.80;;
57335;SDS011;43171;50.994;18.204;2023-05-10T12:46:10;2.30;;;1.80;;
57335;SDS011;43171;50.994;18.204;2023-05-10T12:55:54;1.70;;;1.50;;
57335;SDS011;43171;50.994;18.204;2023-05-10T13:05:36;1.60;;;1.30;;
57335;SDS011;43171;50.994;18.204;2023-05-10T13:15:21;3.40;;;2.40;;
57335;SDS011;43171;50.994;18.204;2023-05-10T13:25:02;3.30;;;2.30;;
57335;SDS011;43171;50.994;18.204;2023-05-10T13:34:45;6.50;;;2.00;;
57335;SDS011;43171;50.994;18.204;2023-05-10T13:44:28;7.50;;;1.30;;
57335;SDS011;43171;50.994;18.204;2023-05-10T13:54:12;2.80;;;1.90;;
57335;SDS011;43171;50.994;18.204;2023-05-10T14:03:55;3.00;;;2.80;;
57335;SDS011;43171;50.994;18.204;2023-05-10T14:13:38;1.90;;;1.70;;
57335;SDS011;43171;50.994;18.204;2023-05-10T14:23:21;2.70;;;2.10;;
57335;SDS011;43171;50.994;18.204;2023-05-10T14:33:09;1.50;;;1.40;;
57335;SDS011;43171;50.994;18.204;2023-05-10T14:42:54;6.00;;;1.80;;
57335;SDS011;43171;50.994;18.204;2023-05-10T14:52:36;1.30;;;1.20;;
57335;SDS011;43171;50.994;18.204;2023-05-10T15:02:21;7.30;;;1.80;;
57335;SDS011;43171;50.994;18.204;2023-05-10T15:12:06;1.20;;;1.10;;
57335;SDS011;43171;50.994;18.204;2023-05-10T15:29:06;1.00;;;1.00;;
57335;SDS011;43171;50.994;18.204;2023-05-10T15:38:52;2.50;;;2.10;;
57335;SDS011;43171;50.994;18.204;2023-05-10T15:48:36;3.90;;;2.40;;
57335;SDS011;43171;50.994;18.204;2023-05-10T15:58:19;1.70;;;1.50;;
57335;SDS011;43171;50.994;18.204;2023-05-10T16:08:02;2.00;;;1.80;;
57335;SDS011;43171;50.994;18.204;2023-05-10T16:17:47;2.80;;;2.50;;
57335;SDS011;43171;50.994;18.204;2023-05-10T16:27:29;6.20;;;3.10;;
57335;SDS011;43171;50.994;18.204;2023-05-10T16:37:14;2.20;;;2.00;;
57335;SDS011;43171;50.994;18.204;2023-05-10T16:46:57;2.70;;;2.50;;
57335;SDS011;43171;50.994;18.204;2023-05-10T16:56:40;3.80;;;3.30;;
57335;SDS011;43171;50.994;18.204;2023-05-10T17:06:23;2.00;;;1.90;;
57335;SDS011;43171;50.994;18.204;2023-05-10T17:16:05;3.40;;;2.80;;
57335;SDS011;43171;50.994;18.204;2023-05-10T17:25:48;1.70;;;1.60;;
57335;SDS011;43171;50.994;18.204;2023-05-10T17:35:30;1.70;;;1.60;;
57335;SDS011;43171;50.994;18.204;2023-05-10T17:45:13;1.60;;;1.50;;
57335;SDS011;43171;50.994;18.204;2023-05-10T17:54:56;3.40;;;2.90;;
57335;SDS011;43171;50.994;18.204;2023-05-10T18:04:40;2.30;;;2.10;;
57335;SDS011;43171;50.994;18.204;2023-05-10T18:14:24;3.40;;;2.20;;
57335;SDS011;43171;50.994;18.204;2023-05-10T18:24:09;2.70;;;2.10;;
57335;SDS011;43171;50.994;18.204;2023-05-10T18:33:51;4.70;;;2.80;;
57335;SDS011;43171;50.994;18.204;2023-05-10T18:43:37;4.30;;;2.50;;
57335;SDS011;43171;50.994;18.204;2023-05-10T18:53:19;3.40;;;2.60;;
57335;SDS011;43171;50.994;18.204;2023-05-10T19:03:01;3.10;;;2.80;;
57335;SDS011;43171;50.994;18.204;2023-05-10T19:12:46;6.30;;;3.00;;
57335;SDS011;43171;50.994;18.204;2023-05-10T19:22:30;10.70;;;3.10;;
57335;SDS011;43171;50.994;18.204;2023-05-10T19:32:12;4.00;;;2.60;;
57335;SDS011;43171;50.994;18.204;2023-05-10T19:41:56;4.10;;;3.00;;
57335;SDS011;43171;50.994;18.204;2023-05-10T19:51:40;4.20;;;2.90;;
57335;SDS011;43171;50.994;18.204;2023-05-10T20:01:23;5.50;;;4.00;;
57335;SDS011;43171;50.994;18.204;2023-05-10T20:11:06;5.30;;;3.30;;
57335;SDS011;43171;50.994;18.204;2023-05-10T20:20:53;3.60;;;2.60;;
57335;SDS011;43171;50.994;18.204;2023-05-10T20:30:37;9.70;;;3.70;;
57335;SDS011;43171;50.994;18.204;2023-05-10T20:40:19;4.10;;;3.20;;
57335;SDS011;43171;50.994;18.204;2023-05-10T20:50:02;6.20;;;3.80;;
57335;SDS011;43171;50.994;18.204;2023-05-10T20:59:45;1.60;;;1.50;;
57335;SDS011;43171;50.994;18.204;2023-05-10T21:09:27;11.10;;;2.80;;
57335;SDS011;43171;50.994;18.204;2023-05-10T21:14:19;6.90;;;3.90;;
57335;SDS011;43171;50.994;18.204;2023-05-10T21:24:01;3.20;;;3.00;;
57335;SDS011;43171;50.994;18.204;2023-05-10T21:33:44;3.50;;;2.60;;
57335;SDS011;43171;50.994;18.204;2023-05-10T21:43:30;3.20;;;2.80;;
57335;SDS011;43171;50.994;18.204;2023-05-10T21:53:12;4.40;;;2.70;;
57335;SDS011;43171;50.994;18.204;2023-05-10T22:02:55;3.50;;;3.00;;
57335;SDS011;43171;50.994;18.204;2023-05-10T22:05:21;7.90;;;3.80;;
57335;SDS011;43171;50.994;18.204;2023-05-10T22:15:03;7.00;;;3.20;;
57335;SDS011;43171;50.994;18.204;2023-05-10T22:24:46;2.70;;;2.50;;
57335;SDS011;43171;50.994;18.204;2023-05-10T22:34:33;2.70;;;2.50;;
57335;SDS011;43171;50.994;18.204;2023-05-10T22:44:18;3.80;;;3.00;;
57335;SDS011;43171;50.994;18.204;2023-05-10T22:54:02;7.50;;;3.70;;
57335;SDS011;43171;50.994;18.204;2023-05-10T23:03:44;3.90;;;2.40;;
57335;SDS011;43171;50.994;18.204;2023-05-10T23:13:26;7.10;;;2.40;;
57335;SDS011;43171;50.994;18.204;2023-05-10T23:23:09;5.30;;;4.30;;
57335;SDS011;43171;50.994;18.204;2023-05-10T23:32:52;3.70;;;3.30;;
57335;SDS011;43171;50.994;18.204;2023-05-10T23:42:34;7.50;;;3.20;;
57335;SDS011;43171;50.994;18.204;2023-05-10T23:52:16;4.70;;;3.40;;
